sensor_id;sensor_type;location;lat;lon;timestamp;P1;durP1;ratioP1;P2;durP2;ratioP2
7845;SDS011;3968;51.424;6.788;2023-05-07T00:01:51;3.80;;;3.40;;
7845;SDS011;3968;51.424;6.788;2023-05-07T00:04:17;3.40;;;2.92;;
7845;SDS011;3968;51.424;6.788;2023-05-07T00:06:43;5.25;;;3.15;;
7845;SDS011;3968;51.424;6.788;2023-05-07T00:09:09;3.38;;;3.00;;
7845;SDS011;3968;51.424;6.788;2023-05-07T00:11:35;4.32;;;3.28;;
7845;SDS011;3968;51.424;6.788;2023-05-07T00:14:01;4.63;;;3.33;;
7845;SDS011;3968;51.424;6.788;2023-05-07T00:16:27;4.43;;;2.92;;
7845;SDS011;3968;51.424;6.788;2023-05-07T00:18:53;4.10;;;3.70;;
7845;SDS011;3968;51.424;6.788;2023-05-07T00:21:19;5.03;;;4.00;;
7845;SDS011;3968;51.424;6.788;2023-05-07T00:23:46;5.15;;;4.00;;
7845;SDS011;3968;51.424;6.788;2023-05-07T00:26:12;5.47;;;4.70;;
7845;SDS011;3968;51.424;6.788;2023-05-07T00:28:38;7.38;;;5.43;;
7845;SDS011;3968;51.424;6.788;2023-05-07T00:31:04;7.63;;;5.38;;
7845;SDS011;3968;51.424;6.788;2023-05-07T00:33:30;5.50;;;5.00;;
7845;SDS011;3968;51.424;6.788;2023-05-07T00:35:56;7.30;;;5.93;;
7845;SDS011;3968;51.424;6.788;2023-05-07T00:38:22;8.80;;;5.80;;
7845;SDS011;3968;51.424;6.788;2023-05-07T00:40:48;7.00;;;6.20;;
7845;SDS011;3968;51.424;6.788;2023-05-07T00:43:15;8.65;;;6.38;;
7845;SDS011;3968;51.424;6.788;2023-05-07T00:45:42;9.27;;;6.18;;
7845;SDS011;3968;51.424;6.788;2023-05-07T00:48:08;6.43;;;5.82;;
7845;SDS011;3968;51.424;6.788;2023-05-07T00:50:34;8.57;;;6.22;;
7845;SDS011;3968;51.424;6.788;2023-05-07T00:53:00;6.88;;;6.18;;
7845;SDS011;3968;51.424;6.788;2023-05-07T00:55:26;7.45;;;5.93;;
7845;SDS011;3968;51.424;6.788;2023-05-07T00:57:52;8.35;;;6.32;;
7845;SDS011;3968;51.424;6.788;2023-05-07T01:00:18;8.93;;;6.72;;
7845;SDS011;3968;51.424;6.788;2023-05-07T01:02:44;11.27;;;7.03;;
7845;SDS011;3968;51.424;6.788;2023-05-07T01:05:12;8.80;;;6.25;;
7845;SDS011;3968;51.424;6.788;2023-05-07T01:07:39;8.82;;;6.63;;
7845;SDS011;3968;51.424;6.788;2023-05-07T01:10:06;7.82;;;6.53;;
7845;SDS011;3968;51.424;6.788;2023-05-07T01:12:32;9.10;;;6.68;;
7845;SDS011;3968;51.424;6.788;2023-05-07T01:14:58;11.15;;;6.85;;
7845;SDS011;3968;51.424;6.788;2023-05-07T01:17:24;7.85;;;6.30;;
7845;SDS011;3968;51.424;6.788;2023-05-07T01:19:50;7.40;;;6.68;;
7845;SDS011;3968;51.424;6.788;2023-05-07T01:22:22;9.88;;;7.15;;
7845;SDS011;3968;51.424;6.788;2023-05-07T01:24:49;8.48;;;6.93;;
7845;SDS011;3968;51.424;6.788;2023-05-07T01:27:15;8.52;;;7.20;;
7845;SDS011;3968;51.424;6.788;2023-05-07T01:29:41;9.13;;;7.03;;
7845;SDS011;3968;51.424;6.788;2023-05-07T01:32:07;10.55;;;6.90;;
7845;SDS011;3968;51.424;6.788;2023-05-07T01:34:34;7.70;;;6.78;;
7845;SDS011;3968;51.424;6.788;2023-05-07T01:37:00;10.07;;;6.75;;
7845;SDS011;3968;51.424;6.788;2023-05-07T01:39:27;10.52;;;7.00;;
7845;SDS011;3968;51.424;6.788;2023-05-07T01:41:56;7.88;;;7.07;;
7845;SDS011;3968;51.424;6.788;2023-05-07T01:44:24;8.13;;;6.73;;
7845;SDS011;3968;51.424;6.788;2023-05-07T01:46:50;7.60;;;6.80;;
7845;SDS011;3968;51.424;6.788;2023-05-07T01:49:17;8.55;;;6.53;;
7845;SDS011;3968;51.424;6.788;2023-05-07T01:51:43;10.60;;;6.68;;
7845;SDS011;3968;51.424;6.788;2023-05-07T01:54:09;9.13;;;6.93;;
7845;SDS011;3968;51.424;6.788;2023-05-07T01:56:35;7.53;;;6.78;;
7845;SDS011;3968;51.424;6.788;2023-05-07T01:59:01;8.27;;;6.22;;
7845;SDS011;3968;51.424;6.788;2023-05-07T02:01:28;7.65;;;6.35;;
7845;SDS011;3968;51.424;6.788;2023-05-07T02:03:54;7.28;;;6.30;;
7845;SDS011;3968;51.424;6.788;2023-05-07T02:06:20;7.32;;;5.43;;
7845;SDS011;3968;51.424;6.788;2023-05-07T02:08:46;8.35;;;5.88;;
7845;SDS011;3968;51.424;6.788;2023-05-07T02:11:12;7.35;;;6.07;;
7845;SDS011;3968;51.424;6.788;2023-05-07T02:13:38;6.57;;;5.45;;
7845;SDS011;3968;51.424;6.788;2023-05-07T02:16:04;8.73;;;5.75;;
7845;SDS011;3968;51.424;6.788;2023-05-07T02:18:30;6.63;;;5.93;;
7845;SDS011;3968;51.424;6.788;2023-05-07T02:20:56;6.15;;;5.55;;
7845;SDS011;3968;51.424;6.788;2023-05-07T02:23:22;6.03;;;5.43;;
7845;SDS011;3968;51.424;6.788;2023-05-07T02:25:49;7.55;;;5.88;;
7845;SDS011;3968;51.424;6.788;2023-05-07T02:28:15;7.47;;;5.75;;
7845;SDS011;3968;51.424;6.788;2023-05-07T02:30:41;6.13;;;5.05;;
7845;SDS011;3968;51.424;6.788;2023-05-07T02:33:07;5.85;;;5.13;;
7845;SDS011;3968;51.424;6.788;2023-05-07T02:35:33;6.43;;;5.13;;
7845;SDS011;3968;51.424;6.788;2023-05-07T02:38:00;5.93;;;4.85;;
7845;SDS011;3968;51.424;6.788;2023-05-07T02:40:25;5.55;;;5.05;;
7845;SDS011;3968;51.424;6.788;2023-05-07T02:42:51;8.98;;;5.57;;
7845;SDS011;3968;51.424;6.788;2023-05-07T02:45:17;7.43;;;5.10;;
7845;SDS011;3968;51.424;6.788;2023-05-07T02:47:43;11.15;;;5.40;;
7845;SDS011;3968;51.424;6.788;2023-05-07T02:50:10;7.78;;;5.05;;
7845;SDS011;3968;51.424;6.788;2023-05-07T02:52:36;6.30;;;5.50;;
7845;SDS011;3968;51.424;6.788;2023-05-07T02:55:02;7.00;;;5.75;;
7845;SDS011;3968;51.424;6.788;2023-05-07T02:57:28;9.13;;;5.80;;
7845;SDS011;3968;51.424;6.788;2023-05-07T02:59:54;7.65;;;5.45;;
7845;SDS011;3968;51.424;6.788;2023-05-07T03:02:20;6.60;;;5.80;;
7845;SDS011;3968;51.424;6.788;2023-05-07T03:04:46;9.43;;;6.22;;
7845;SDS011;3968;51.424;6.788;2023-05-07T03:07:12;7.43;;;6.55;;
7845;SDS011;3968;51.424;6.788;2023-05-07T03:09:38;6.47;;;5.78;;
7845;SDS011;3968;51.424;6.788;2023-05-07T03:12:04;6.83;;;5.63;;
7845;SDS011;3968;51.424;6.788;2023-05-07T03:14:30;6.50;;;5.75;;
7845;SDS011;3968;51.424;6.788;2023-05-07T03:16:56;7.00;;;5.90;;
7845;SDS011;3968;51.424;6.788;2023-05-07T03:19:22;7.10;;;6.40;;
7845;SDS011;3968;51.424;6.788;2023-05-07T03:21:48;6.82;;;6.13;;
7845;SDS011;3968;51.424;6.788;2023-05-07T03:24:14;7.97;;;5.95;;
7845;SDS011;3968;51.424;6.788;2023-05-07T03:26:40;7.20;;;6.50;;
7845;SDS011;3968;51.424;6.788;2023-05-07T03:29:06;7.25;;;6.47;;
7845;SDS011;3968;51.424;6.788;2023-05-07T03:31:32;7.25;;;6.55;;
7845;SDS011;3968;51.424;6.788;2023-05-07T03:33:57;12.27;;;7.68;;
7845;SDS011;3968;51.424;6.788;2023-05-07T03:36:24;8.68;;;7.75;;
7845;SDS011;3968;51.424;6.788;2023-05-07T03:38:51;11.18;;;8.23;;
7845;SDS011;3968;51.424;6.788;2023-05-07T03:41:17;10.63;;;8.57;;
7845;SDS011;3968;51.424;6.788;2023-05-07T03:43:43;9.75;;;8.75;;
7845;SDS011;3968;51.424;6.788;2023-05-07T03:46:09;9.20;;;8.30;;
7845;SDS011;3968;51.424;6.788;2023-05-07T03:48:35;9.23;;;7.85;;
7845;SDS011;3968;51.424;6.788;2023-05-07T03:51:01;10.45;;;8.65;;
7845;SDS011;3968;51.424;6.788;2023-05-07T03:53:27;10.38;;;7.75;;
7845;SDS011;3968;51.424;6.788;2023-05-07T03:55:53;8.43;;;7.20;;
7845;SDS011;3968;51.424;6.788;2023-05-07T03:58:19;7.50;;;6.43;;
7845;SDS011;3968;51.424;6.788;2023-05-07T04:00:45;8.60;;;7.23;;
7845;SDS011;3968;51.424;6.788;2023-05-07T04:03:11;8.05;;;6.25;;
7845;SDS011;3968;51.424;6.788;2023-05-07T04:05:37;8.05;;;7.25;;
7845;SDS011;3968;51.424;6.788;2023-05-07T04:08:03;12.10;;;8.30;;
7845;SDS011;3968;51.424;6.788;2023-05-07T04:10:30;9.40;;;8.35;;
7845;SDS011;3968;51.424;6.788;2023-05-07T04:12:56;10.13;;;8.93;;
7845;SDS011;3968;51.424;6.788;2023-05-07T04:15:23;11.88;;;9.93;;
7845;SDS011;3968;51.424;6.788;2023-05-07T04:17:49;10.70;;;9.15;;
7845;SDS011;3968;51.424;6.788;2023-05-07T04:20:15;13.63;;;9.97;;
7845;SDS011;3968;51.424;6.788;2023-05-07T04:22:41;11.35;;;9.85;;
7845;SDS011;3968;51.424;6.788;2023-05-07T04:25:08;10.55;;;9.45;;
7845;SDS011;3968;51.424;6.788;2023-05-07T04:27:34;11.30;;;9.20;;
7845;SDS011;3968;51.424;6.788;2023-05-07T04:30:01;10.52;;;9.40;;
7845;SDS011;3968;51.424;6.788;2023-05-07T04:32:27;10.75;;;9.30;;
7845;SDS011;3968;51.424;6.788;2023-05-07T04:34:54;10.23;;;9.02;;
7845;SDS011;3968;51.424;6.788;2023-05-07T04:37:20;10.80;;;8.63;;
7845;SDS011;3968;51.424;6.788;2023-05-07T04:39:46;11.63;;;9.57;;
7845;SDS011;3968;51.424;6.788;2023-05-07T04:42:16;10.10;;;9.02;;
7845;SDS011;3968;51.424;6.788;2023-05-07T04:44:42;10.47;;;9.00;;
7845;SDS011;3968;51.424;6.788;2023-05-07T04:47:09;9.88;;;8.88;;
7845;SDS011;3968;51.424;6.788;2023-05-07T04:49:35;12.35;;;8.55;;
7845;SDS011;3968;51.424;6.788;2023-05-07T04:52:01;10.75;;;8.82;;
7845;SDS011;3968;51.424;6.788;2023-05-07T04:54:28;9.38;;;8.30;;
7845;SDS011;3968;51.424;6.788;2023-05-07T04:56:54;9.77;;;8.88;;
7845;SDS011;3968;51.424;6.788;2023-05-07T04:59:20;10.57;;;8.80;;
7845;SDS011;3968;51.424;6.788;2023-05-07T05:01:46;9.82;;;8.68;;
7845;SDS011;3968;51.424;6.788;2023-05-07T05:04:12;10.77;;;9.18;;
7845;SDS011;3968;51.424;6.788;2023-05-07T05:06:38;10.90;;;9.55;;
7845;SDS011;3968;51.424;6.788;2023-05-07T05:09:04;10.15;;;8.95;;
7845;SDS011;3968;51.424;6.788;2023-05-07T05:11:31;10.45;;;9.32;;
7845;SDS011;3968;51.424;6.788;2023-05-07T05:13:58;13.95;;;10.25;;
7845;SDS011;3968;51.424;6.788;2023-05-07T05:16:25;11.57;;;10.38;;
7845;SDS011;3968;51.424;6.788;2023-05-07T05:18:51;11.32;;;9.77;;
7845;SDS011;3968;51.424;6.788;2023-05-07T05:21:19;11.07;;;9.07;;
7845;SDS011;3968;51.424;6.788;2023-05-07T05:23:45;11.43;;;10.30;;
7845;SDS011;3968;51.424;6.788;2023-05-07T05:26:11;12.67;;;9.83;;
7845;SDS011;3968;51.424;6.788;2023-05-07T05:28:37;14.05;;;11.00;;
7845;SDS011;3968;51.424;6.788;2023-05-07T05:31:03;13.18;;;10.52;;
7845;SDS011;3968;51.424;6.788;2023-05-07T05:33:29;13.82;;;11.55;;
7845;SDS011;3968;51.424;6.788;2023-05-07T05:35:55;13.02;;;11.73;;
7845;SDS011;3968;51.424;6.788;2023-05-07T05:38:21;13.35;;;11.95;;
7845;SDS011;3968;51.424;6.788;2023-05-07T05:40:47;13.60;;;12.20;;
7845;SDS011;3968;51.424;6.788;2023-05-07T05:43:13;12.02;;;10.82;;
7845;SDS011;3968;51.424;6.788;2023-05-07T05:45:39;14.15;;;12.18;;
7845;SDS011;3968;51.424;6.788;2023-05-07T05:48:05;13.20;;;11.88;;
7845;SDS011;3968;51.424;6.788;2023-05-07T05:50:31;15.52;;;11.30;;
7845;SDS011;3968;51.424;6.788;2023-05-07T05:52:57;13.32;;;11.95;;
7845;SDS011;3968;51.424;6.788;2023-05-07T05:55:23;12.93;;;11.63;;
7845;SDS011;3968;51.424;6.788;2023-05-07T05:57:50;13.43;;;11.70;;
7845;SDS011;3968;51.424;6.788;2023-05-07T06:00:16;12.98;;;11.18;;
7845;SDS011;3968;51.424;6.788;2023-05-07T06:02:42;12.10;;;10.88;;
7845;SDS011;3968;51.424;6.788;2023-05-07T06:05:08;12.80;;;11.02;;
7845;SDS011;3968;51.424;6.788;2023-05-07T06:07:34;13.82;;;11.48;;
7845;SDS011;3968;51.424;6.788;2023-05-07T06:10:01;13.15;;;10.40;;
7845;SDS011;3968;51.424;6.788;2023-05-07T06:12:27;14.10;;;11.60;;
7845;SDS011;3968;51.424;6.788;2023-05-07T06:14:53;17.52;;;14.52;;
7845;SDS011;3968;51.424;6.788;2023-05-07T06:17:19;12.82;;;11.60;;
7845;SDS011;3968;51.424;6.788;2023-05-07T06:19:45;12.50;;;11.23;;
7845;SDS011;3968;51.424;6.788;2023-05-07T06:22:10;11.05;;;9.95;;
7845;SDS011;3968;51.424;6.788;2023-05-07T06:24:37;11.25;;;9.85;;
7845;SDS011;3968;51.424;6.788;2023-05-07T06:27:03;12.80;;;10.75;;
7845;SDS011;3968;51.424;6.788;2023-05-07T06:29:29;11.32;;;10.13;;
7845;SDS011;3968;51.424;6.788;2023-05-07T06:32:05;11.73;;;9.35;;
7845;SDS011;3968;51.424;6.788;2023-05-07T06:34:31;9.63;;;8.63;;
7845;SDS011;3968;51.424;6.788;2023-05-07T06:36:57;11.25;;;9.30;;
7845;SDS011;3968;51.424;6.788;2023-05-07T06:39:23;11.48;;;9.80;;
7845;SDS011;3968;51.424;6.788;2023-05-07T06:41:49;11.63;;;8.48;;
7845;SDS011;3968;51.424;6.788;2023-05-07T06:44:15;11.20;;;8.75;;
7845;SDS011;3968;51.424;6.788;2023-05-07T06:46:41;9.30;;;8.30;;
7845;SDS011;3968;51.424;6.788;2023-05-07T06:49:07;9.93;;;8.55;;
7845;SDS011;3968;51.424;6.788;2023-05-07T06:51:33;10.48;;;8.98;;
7845;SDS011;3968;51.424;6.788;2023-05-07T06:53:59;9.20;;;7.75;;
7845;SDS011;3968;51.424;6.788;2023-05-07T06:56:25;11.73;;;7.35;;
7845;SDS011;3968;51.424;6.788;2023-05-07T06:58:51;8.55;;;6.95;;
7845;SDS011;3968;51.424;6.788;2023-05-07T07:01:17;8.88;;;7.57;;
7845;SDS011;3968;51.424;6.788;2023-05-07T07:03:43;7.97;;;6.93;;
7845;SDS011;3968;51.424;6.788;2023-05-07T07:06:09;11.68;;;7.78;;
7845;SDS011;3968;51.424;6.788;2023-05-07T07:08:35;8.07;;;7.28;;
7845;SDS011;3968;51.424;6.788;2023-05-07T07:11:03;7.82;;;7.00;;
7845;SDS011;3968;51.424;6.788;2023-05-07T07:13:29;11.27;;;6.72;;
7845;SDS011;3968;51.424;6.788;2023-05-07T07:15:55;7.13;;;6.25;;
7845;SDS011;3968;51.424;6.788;2023-05-07T07:18:21;6.70;;;5.85;;
7845;SDS011;3968;51.424;6.788;2023-05-07T07:20:48;8.98;;;5.68;;
7845;SDS011;3968;51.424;6.788;2023-05-07T07:23:14;5.78;;;5.15;;
7845;SDS011;3968;51.424;6.788;2023-05-07T07:25:40;6.70;;;5.32;;
7845;SDS011;3968;51.424;6.788;2023-05-07T07:28:06;5.97;;;4.97;;
7845;SDS011;3968;51.424;6.788;2023-05-07T07:30:32;6.13;;;4.95;;
7845;SDS011;3968;51.424;6.788;2023-05-07T07:32:58;7.63;;;4.68;;
7845;SDS011;3968;51.424;6.788;2023-05-07T07:35:34;4.55;;;3.63;;
7845;SDS011;3968;51.424;6.788;2023-05-07T07:38:00;4.65;;;4.25;;
7845;SDS011;3968;51.424;6.788;2023-05-07T07:40:26;6.60;;;3.92;;
7845;SDS011;3968;51.424;6.788;2023-05-07T07:42:53;5.05;;;4.20;;
7845;SDS011;3968;51.424;6.788;2023-05-07T07:45:19;4.38;;;3.78;;
7845;SDS011;3968;51.424;6.788;2023-05-07T07:47:45;4.72;;;4.22;;
7845;SDS011;3968;51.424;6.788;2023-05-07T07:50:11;6.40;;;4.32;;
7845;SDS011;3968;51.424;6.788;2023-05-07T07:52:37;4.72;;;4.03;;
7845;SDS011;3968;51.424;6.788;2023-05-07T07:55:03;4.68;;;4.22;;
7845;SDS011;3968;51.424;6.788;2023-05-07T07:57:30;4.10;;;3.70;;
7845;SDS011;3968;51.424;6.788;2023-05-07T07:59:56;6.18;;;4.07;;
7845;SDS011;3968;51.424;6.788;2023-05-07T08:02:22;6.57;;;4.32;;
7845;SDS011;3968;51.424;6.788;2023-05-07T08:04:48;5.57;;;3.88;;
7845;SDS011;3968;51.424;6.788;2023-05-07T08:07:14;4.40;;;3.72;;
7845;SDS011;3968;51.424;6.788;2023-05-07T08:09:43;7.75;;;4.45;;
7845;SDS011;3968;51.424;6.788;2023-05-07T08:12:09;5.30;;;4.50;;
7845;SDS011;3968;51.424;6.788;2023-05-07T08:14:35;5.28;;;3.60;;
7845;SDS011;3968;51.424;6.788;2023-05-07T08:17:02;5.05;;;3.75;;
7845;SDS011;3968;51.424;6.788;2023-05-07T08:19:28;96.57;;;73.82;;
7845;SDS011;3968;51.424;6.788;2023-05-07T08:21:54;100.63;;;78.45;;
7845;SDS011;3968;51.424;6.788;2023-05-07T08:24:20;133.07;;;91.88;;
7845;SDS011;3968;51.424;6.788;2023-05-07T08:26:46;55.75;;;42.85;;
7845;SDS011;3968;51.424;6.788;2023-05-07T08:29:12;52.60;;;37.63;;
7845;SDS011;3968;51.424;6.788;2023-05-07T08:31:38;47.65;;;36.50;;
7845;SDS011;3968;51.424;6.788;2023-05-07T08:34:04;33.30;;;25.38;;
7845;SDS011;3968;51.424;6.788;2023-05-07T08:36:31;11.45;;;7.32;;
7845;SDS011;3968;51.424;6.788;2023-05-07T08:38:57;11.35;;;8.65;;
7845;SDS011;3968;51.424;6.788;2023-05-07T08:41:23;47.72;;;35.53;;
7845;SDS011;3968;51.424;6.788;2023-05-07T08:43:50;14.82;;;10.13;;
7845;SDS011;3968;51.424;6.788;2023-05-07T08:46:17;13.90;;;11.07;;
7845;SDS011;3968;51.424;6.788;2023-05-07T08:48:44;33.58;;;25.95;;
7845;SDS011;3968;51.424;6.788;2023-05-07T08:51:15;25.98;;;20.00;;
7845;SDS011;3968;51.424;6.788;2023-05-07T08:53:41;282.10;;;205.05;;
7845;SDS011;3968;51.424;6.788;2023-05-07T08:56:10;147.73;;;106.07;;
7845;SDS011;3968;51.424;6.788;2023-05-07T08:58:37;64.70;;;46.45;;
7845;SDS011;3968;51.424;6.788;2023-05-07T09:01:09;18.05;;;12.02;;
7845;SDS011;3968;51.424;6.788;2023-05-07T09:03:37;7.93;;;5.25;;
7845;SDS011;3968;51.424;6.788;2023-05-07T09:06:04;4.35;;;3.45;;
7845;SDS011;3968;51.424;6.788;2023-05-07T09:08:30;2.97;;;2.70;;
7845;SDS011;3968;51.424;6.788;2023-05-07T09:10:57;5.25;;;3.15;;
7845;SDS011;3968;51.424;6.788;2023-05-07T09:13:23;4.72;;;3.13;;
7845;SDS011;3968;51.424;6.788;2023-05-07T09:15:49;6.30;;;3.85;;
7845;SDS011;3968;51.424;6.788;2023-05-07T09:18:15;4.13;;;3.28;;
7845;SDS011;3968;51.424;6.788;2023-05-07T09:20:41;3.42;;;3.03;;
7845;SDS011;3968;51.424;6.788;2023-05-07T09:23:08;7.47;;;2.83;;
7845;SDS011;3968;51.424;6.788;2023-05-07T09:25:35;3.40;;;2.78;;
7845;SDS011;3968;51.424;6.788;2023-05-07T09:28:01;4.57;;;3.15;;
7845;SDS011;3968;51.424;6.788;2023-05-07T09:30:31;5.72;;;2.90;;
7845;SDS011;3968;51.424;6.788;2023-05-07T09:32:57;3.30;;;2.83;;
7845;SDS011;3968;51.424;6.788;2023-05-07T09:35:25;3.83;;;2.97;;
7845;SDS011;3968;51.424;6.788;2023-05-07T09:37:58;4.45;;;3.53;;
7845;SDS011;3968;51.424;6.788;2023-05-07T09:40:28;3.78;;;2.90;;
7845;SDS011;3968;51.424;6.788;2023-05-07T09:42:54;3.80;;;2.90;;
7845;SDS011;3968;51.424;6.788;2023-05-07T09:45:21;3.20;;;2.90;;
7845;SDS011;3968;51.424;6.788;2023-05-07T09:47:48;5.47;;;2.70;;
7845;SDS011;3968;51.424;6.788;2023-05-07T09:50:14;3.45;;;2.65;;
7845;SDS011;3968;51.424;6.788;2023-05-07T09:52:40;5.22;;;2.75;;
7845;SDS011;3968;51.424;6.788;2023-05-07T09:55:08;4.65;;;2.67;;
7845;SDS011;3968;51.424;6.788;2023-05-07T09:57:34;3.42;;;2.70;;
7845;SDS011;3968;51.424;6.788;2023-05-07T10:00:02;3.20;;;2.65;;
7845;SDS011;3968;51.424;6.788;2023-05-07T10:02:32;4.60;;;2.53;;
7845;SDS011;3968;51.424;6.788;2023-05-07T10:05:01;3.58;;;2.20;;
7845;SDS011;3968;51.424;6.788;2023-05-07T10:07:28;3.10;;;2.70;;
7845;SDS011;3968;51.424;6.788;2023-05-07T10:09:55;3.22;;;2.47;;
7845;SDS011;3968;51.424;6.788;2023-05-07T10:12:21;4.28;;;2.45;;
7845;SDS011;3968;51.424;6.788;2023-05-07T10:14:47;3.55;;;2.35;;
7845;SDS011;3968;51.424;6.788;2023-05-07T10:17:13;5.35;;;2.67;;
7845;SDS011;3968;51.424;6.788;2023-05-07T10:19:44;3.25;;;2.50;;
7845;SDS011;3968;51.424;6.788;2023-05-07T10:22:13;2.55;;;2.35;;
7845;SDS011;3968;51.424;6.788;2023-05-07T10:24:41;2.60;;;2.40;;
7845;SDS011;3968;51.424;6.788;2023-05-07T10:27:09;2.72;;;2.22;;
7845;SDS011;3968;51.424;6.788;2023-05-07T10:29:42;3.40;;;2.22;;
7845;SDS011;3968;51.424;6.788;2023-05-07T10:34:37;2.45;;;2.25;;
7845;SDS011;3968;51.424;6.788;2023-05-07T10:37:04;2.47;;;2.25;;
7845;SDS011;3968;51.424;6.788;2023-05-07T10:39:31;2.40;;;2.20;;
7845;SDS011;3968;51.424;6.788;2023-05-07T10:41:57;4.50;;;2.95;;
7845;SDS011;3968;51.424;6.788;2023-05-07T10:44:32;3.55;;;2.60;;
7845;SDS011;3968;51.424;6.788;2023-05-07T10:47:06;2.95;;;2.22;;
7845;SDS011;3968;51.424;6.788;2023-05-07T10:49:34;5.18;;;3.03;;
7845;SDS011;3968;51.424;6.788;2023-05-07T10:52:13;3.55;;;2.55;;
7845;SDS011;3968;51.424;6.788;2023-05-07T10:54:40;3.15;;;2.22;;
7845;SDS011;3968;51.424;6.788;2023-05-07T10:59:51;3.05;;;2.15;;
7845;SDS011;3968;51.424;6.788;2023-05-07T11:02:18;3.65;;;2.30;;
7845;SDS011;3968;51.424;6.788;2023-05-07T11:04:44;3.50;;;2.38;;
7845;SDS011;3968;51.424;6.788;2023-05-07T11:07:43;3.17;;;2.00;;
7845;SDS011;3968;51.424;6.788;2023-05-07T11:10:03;3.25;;;2.40;;
7845;SDS011;3968;51.424;6.788;2023-05-07T11:17:31;4.25;;;2.50;;
7845;SDS011;3968;51.424;6.788;2023-05-07T11:19:59;5.50;;;2.60;;
7845;SDS011;3968;51.424;6.788;2023-05-07T11:25:02;4.07;;;1.90;;
7845;SDS011;3968;51.424;6.788;2023-05-07T11:27:29;149.63;;;108.00;;
7845;SDS011;3968;51.424;6.788;2023-05-07T11:29:55;63.72;;;43.67;;
7845;SDS011;3968;51.424;6.788;2023-05-07T11:32:25;14.07;;;9.38;;
7845;SDS011;3968;51.424;6.788;2023-05-07T11:34:52;6.78;;;3.70;;
7845;SDS011;3968;51.424;6.788;2023-05-07T11:37:19;8.90;;;2.95;;
7845;SDS011;3968;51.424;6.788;2023-05-07T11:39:45;4.78;;;3.28;;
7845;SDS011;3968;51.424;6.788;2023-05-07T11:42:30;3.45;;;2.70;;
7845;SDS011;3968;51.424;6.788;2023-05-07T11:44:57;5.15;;;3.00;;
7845;SDS011;3968;51.424;6.788;2023-05-07T11:47:23;3.25;;;2.95;;
7845;SDS011;3968;51.424;6.788;2023-05-07T11:49:50;2.88;;;2.58;;
7845;SDS011;3968;51.424;6.788;2023-05-07T11:52:17;5.97;;;3.42;;
7845;SDS011;3968;51.424;6.788;2023-05-07T11:54:54;5.28;;;3.10;;
7845;SDS011;3968;51.424;6.788;2023-05-07T11:57:20;5.90;;;3.30;;
7845;SDS011;3968;51.424;6.788;2023-05-07T11:59:46;5.22;;;3.78;;
7845;SDS011;3968;51.424;6.788;2023-05-07T12:02:16;10.45;;;3.55;;
7845;SDS011;3968;51.424;6.788;2023-05-07T12:04:42;3.33;;;3.03;;
7845;SDS011;3968;51.424;6.788;2023-05-07T12:07:11;3.47;;;2.70;;
7845;SDS011;3968;51.424;6.788;2023-05-07T12:09:38;3.20;;;2.90;;
7845;SDS011;3968;51.424;6.788;2023-05-07T12:12:04;4.53;;;2.88;;
7845;SDS011;3968;51.424;6.788;2023-05-07T12:14:31;4.03;;;2.35;;
7845;SDS011;3968;51.424;6.788;2023-05-07T12:16:57;4.20;;;2.47;;
7845;SDS011;3968;51.424;6.788;2023-05-07T12:19:26;3.67;;;3.00;;
7845;SDS011;3968;51.424;6.788;2023-05-07T12:21:52;4.03;;;3.08;;
7845;SDS011;3968;51.424;6.788;2023-05-07T12:24:18;3.65;;;2.67;;
7845;SDS011;3968;51.424;6.788;2023-05-07T12:26:44;3.40;;;2.38;;
7845;SDS011;3968;51.424;6.788;2023-05-07T12:29:10;140.00;;;108.97;;
7845;SDS011;3968;51.424;6.788;2023-05-07T12:31:36;244.90;;;188.20;;
7845;SDS011;3968;51.424;6.788;2023-05-07T12:34:02;229.75;;;167.30;;
7845;SDS011;3968;51.424;6.788;2023-05-07T12:36:36;61.50;;;44.10;;
7845;SDS011;3968;51.424;6.788;2023-05-07T12:39:03;10.82;;;7.43;;
7845;SDS011;3968;51.424;6.788;2023-05-07T12:41:30;3.72;;;3.35;;
7845;SDS011;3968;51.424;6.788;2023-05-07T12:43:56;5.72;;;2.95;;
7845;SDS011;3968;51.424;6.788;2023-05-07T12:46:22;3.40;;;2.63;;
7845;SDS011;3968;51.424;6.788;2023-05-07T12:48:48;3.28;;;2.80;;
7845;SDS011;3968;51.424;6.788;2023-05-07T12:51:15;3.25;;;2.50;;
7845;SDS011;3968;51.424;6.788;2023-05-07T12:53:41;4.32;;;2.53;;
7845;SDS011;3968;51.424;6.788;2023-05-07T12:56:08;4.25;;;2.38;;
7845;SDS011;3968;51.424;6.788;2023-05-07T12:58:34;5.78;;;3.00;;
7845;SDS011;3968;51.424;6.788;2023-05-07T13:01:04;10.23;;;7.65;;
7845;SDS011;3968;51.424;6.788;2023-05-07T13:03:31;8.40;;;5.07;;
7845;SDS011;3968;51.424;6.788;2023-05-07T13:05:58;5.32;;;3.92;;
7845;SDS011;3968;51.424;6.788;2023-05-07T13:10:51;6.78;;;3.55;;
7845;SDS011;3968;51.424;6.788;2023-05-07T13:13:18;4.90;;;3.67;;
7845;SDS011;3968;51.424;6.788;2023-05-07T13:15:44;4.07;;;3.60;;
7845;SDS011;3968;51.424;6.788;2023-05-07T13:18:10;4.35;;;3.95;;
7845;SDS011;3968;51.424;6.788;2023-05-07T13:20:36;4.90;;;3.78;;
7845;SDS011;3968;51.424;6.788;2023-05-07T13:23:02;6.22;;;4.68;;
7845;SDS011;3968;51.424;6.788;2023-05-07T13:25:29;4.43;;;4.00;;
7845;SDS011;3968;51.424;6.788;2023-05-07T13:27:56;7.82;;;4.60;;
7845;SDS011;3968;51.424;6.788;2023-05-07T13:30:22;4.75;;;3.97;;
7845;SDS011;3968;51.424;6.788;2023-05-07T13:32:48;5.97;;;4.10;;
7845;SDS011;3968;51.424;6.788;2023-05-07T13:35:15;4.85;;;3.92;;
7845;SDS011;3968;51.424;6.788;2023-05-07T13:37:42;5.82;;;3.70;;
7845;SDS011;3968;51.424;6.788;2023-05-07T13:40:08;5.18;;;3.97;;
7845;SDS011;3968;51.424;6.788;2023-05-07T13:42:34;5.07;;;4.18;;
7845;SDS011;3968;51.424;6.788;2023-05-07T13:45:00;5.78;;;4.13;;
7845;SDS011;3968;51.424;6.788;2023-05-07T13:47:29;5.13;;;3.70;;
7845;SDS011;3968;51.424;6.788;2023-05-07T13:49:55;5.43;;;3.88;;
7845;SDS011;3968;51.424;6.788;2023-05-07T13:52:20;5.70;;;4.10;;
7845;SDS011;3968;51.424;6.788;2023-05-07T13:54:46;4.28;;;3.88;;
7845;SDS011;3968;51.424;6.788;2023-05-07T13:57:12;5.25;;;3.90;;
7845;SDS011;3968;51.424;6.788;2023-05-07T13:59:40;5.80;;;4.18;;
7845;SDS011;3968;51.424;6.788;2023-05-07T14:02:06;5.30;;;4.60;;
7845;SDS011;3968;51.424;6.788;2023-05-07T14:04:34;8.88;;;5.90;;
7845;SDS011;3968;51.424;6.788;2023-05-07T14:07:00;6.25;;;5.05;;
7845;SDS011;3968;51.424;6.788;2023-05-07T14:09:26;7.05;;;4.90;;
7845;SDS011;3968;51.424;6.788;2023-05-07T14:11:52;8.50;;;5.35;;
7845;SDS011;3968;51.424;6.788;2023-05-07T14:14:18;6.95;;;4.88;;
7845;SDS011;3968;51.424;6.788;2023-05-07T14:16:44;8.07;;;5.32;;
7845;SDS011;3968;51.424;6.788;2023-05-07T14:19:13;7.22;;;5.57;;
7845;SDS011;3968;51.424;6.788;2023-05-07T14:21:39;7.97;;;5.90;;
7845;SDS011;3968;51.424;6.788;2023-05-07T14:24:08;8.30;;;5.82;;
7845;SDS011;3968;51.424;6.788;2023-05-07T14:26:34;6.55;;;5.85;;
7845;SDS011;3968;51.424;6.788;2023-05-07T14:29:00;7.38;;;5.80;;
7845;SDS011;3968;51.424;6.788;2023-05-07T14:31:27;7.50;;;6.20;;
7845;SDS011;3968;51.424;6.788;2023-05-07T14:33:52;8.73;;;5.38;;
7845;SDS011;3968;51.424;6.788;2023-05-07T14:36:18;7.78;;;5.63;;
7845;SDS011;3968;51.424;6.788;2023-05-07T14:38:46;6.60;;;5.65;;
7845;SDS011;3968;51.424;6.788;2023-05-07T14:41:12;6.82;;;6.13;;
7845;SDS011;3968;51.424;6.788;2023-05-07T14:43:38;9.73;;;6.22;;
7845;SDS011;3968;51.424;6.788;2023-05-07T14:46:04;6.22;;;5.60;;
7845;SDS011;3968;51.424;6.788;2023-05-07T14:48:30;7.72;;;6.05;;
7845;SDS011;3968;51.424;6.788;2023-05-07T14:50:56;7.22;;;6.53;;
7845;SDS011;3968;51.424;6.788;2023-05-07T14:53:22;8.13;;;6.28;;
7845;SDS011;3968;51.424;6.788;2023-05-07T14:55:48;8.25;;;5.45;;
7845;SDS011;3968;51.424;6.788;2023-05-07T14:58:14;9.57;;;6.15;;
7845;SDS011;3968;51.424;6.788;2023-05-07T15:00:40;6.55;;;5.85;;
7845;SDS011;3968;51.424;6.788;2023-05-07T15:03:07;6.63;;;5.95;;
7845;SDS011;3968;51.424;6.788;2023-05-07T15:05:35;226.60;;;171.32;;
7845;SDS011;3968;51.424;6.788;2023-05-07T15:08:02;189.13;;;146.68;;
7845;SDS011;3968;51.424;6.788;2023-05-07T15:10:28;231.40;;;185.10;;
7845;SDS011;3968;51.424;6.788;2023-05-07T15:12:54;26.48;;;21.25;;
7845;SDS011;3968;51.424;6.788;2023-05-07T15:15:20;13.02;;;8.27;;
7845;SDS011;3968;51.424;6.788;2023-05-07T15:17:46;8.88;;;7.75;;
7845;SDS011;3968;51.424;6.788;2023-05-07T15:20:12;8.18;;;6.53;;